createdAt,value
2019-05-20T00:00:31.402Z,176.00
2019-05-20T00:01:31.419Z,200.00
2019-05-20T00:02:31.439Z,212.00
2019-05-20T00:03:31.461Z,192.00
2019-05-20T00:04:31.484Z,176.00
2019-05-20T00:05:31.524Z,172.00
2019-05-20T00:06:31.532Z,168.00
2019-05-20T00:07:31.549Z,180.00
2019-05-20T00:08:31.569Z,180.00
2019-05-20T00:09:31.641Z,176.00
2019-05-20T00:10:31.615Z,172.00
2019-05-20T00:11:31.637Z,172.00
2019-05-20T00:12:31.656Z,176.00
2019-05-20T00:13:31.678Z,184.00
2019-05-20T00:14:31.697Z,188.00
2019-05-20T00:15:31.718Z,156.00
2019-05-20T00:16:31.739Z,144.00
2019-05-20T00:17:31.776Z,148.00
2019-05-20T00:18:31.781Z,168.00
2019-05-20T00:19:31.808Z,204.00
2019-05-20T00:20:31.829Z,204.00
2019-05-20T00:21:31.879Z,180.00
2019-05-20T00:22:31.870Z,188.00
2019-05-20T00:23:31.910Z,196.00
2019-05-20T00:24:31.910Z,216.00
2019-05-20T00:25:31.950Z,220.00
2019-05-20T00:26:31.953Z,224.00
2019-05-20T00:27:31.985Z,216.00
2019-05-20T00:28:31.994Z,188.00
2019-05-20T00:29:32.019Z,176.00
2019-05-20T00:30:32.039Z,180.00
2019-05-20T00:31:32.062Z,176.00
2019-05-20T00:32:40.607Z,172.00
2019-05-20T00:33:32.102Z,184.00
2019-05-20T00:34:35.167Z,200.00
2019-05-20T00:35:32.155Z,216.00
2019-05-20T00:36:32.167Z,216.00
2019-05-20T00:37:32.187Z,212.00
2019-05-20T00:38:32.212Z,220.00
2019-05-20T00:39:32.234Z,200.00
2019-05-20T00:40:32.254Z,216.00
2019-05-20T00:41:32.273Z,232.00
2019-05-20T00:42:32.297Z,228.00
2019-05-20T00:43:32.327Z,212.00
2019-05-20T00:44:32.338Z,184.00
2019-05-20T00:45:32.360Z,168.00
2019-05-20T00:46:32.385Z,164.00
2019-05-20T00:47:32.408Z,176.00
2019-05-20T00:48:32.423Z,196.00
2019-05-20T00:49:32.448Z,212.00
2019-05-20T00:50:32.527Z,228.00
2019-05-20T00:51:32.493Z,232.00
2019-05-20T00:52:32.515Z,248.00
2019-05-20T00:53:32.535Z,248.00
2019-05-20T00:54:32.554Z,236.00
2019-05-20T00:55:32.583Z,224.00
2019-05-20T00:56:32.597Z,224.00
2019-05-20T00:57:32.621Z,236.00
2019-05-20T00:58:32.651Z,228.00
2019-05-20T00:59:32.662Z,216.00
2019-05-20T01:00:32.683Z,224.00
2019-05-20T01:01:32.705Z,244.00
2019-05-20T01:02:32.727Z,276.00
2019-05-20T01:03:32.748Z,288.00
2019-05-20T01:04:32.770Z,312.00
2019-05-20T01:05:32.792Z,344.00
2019-05-20T01:06:32.812Z,368.00
2019-05-20T01:07:32.840Z,384.00
2019-05-20T01:08:32.901Z,376.00
2019-05-20T01:09:32.880Z,344.00
2019-05-20T01:10:32.899Z,304.00
2019-05-20T01:11:32.921Z,272.00
2019-05-20T01:12:32.944Z,260.00
2019-05-20T01:13:32.966Z,264.00
2019-05-20T01:14:32.992Z,268.00
2019-05-20T01:15:33.056Z,276.00
2019-05-20T01:16:33.109Z,296.00
2019-05-20T01:17:33.050Z,304.00
2019-05-20T01:18:33.262Z,316.00
2019-05-20T01:19:33.152Z,332.00
2019-05-20T01:20:33.116Z,352.00
2019-05-20T01:21:33.135Z,372.00
2019-05-20T01:22:33.175Z,384.00
2019-05-20T01:23:33.181Z,388.00
2019-05-20T01:24:33.210Z,424.00
2019-05-20T01:25:33.224Z,456.00
2019-05-20T01:26:33.246Z,472.00
2019-05-20T01:27:33.269Z,504.00
2019-05-20T01:28:33.328Z,524.00
2019-05-20T01:29:33.315Z,544.00
2019-05-20T01:30:33.330Z,556.00
2019-05-20T01:31:33.351Z,548.00
2019-05-20T01:32:33.373Z,524.00
2019-05-20T01:33:33.395Z,492.00
2019-05-20T01:34:33.417Z,428.00
2019-05-20T01:35:33.440Z,388.00
2019-05-20T01:36:33.467Z,368.00
2019-05-20T01:37:33.482Z,356.00
2019-05-20T01:38:33.506Z,356.00
2019-05-20T01:39:33.531Z,364.00
2019-05-20T01:40:33.546Z,384.00
2019-05-20T01:41:33.574Z,420.00
2019-05-20T01:42:33.592Z,444.00
2019-05-20T01:43:33.612Z,432.00
2019-05-20T01:44:33.632Z,440.00
2019-05-20T01:45:33.656Z,424.00
2019-05-20T01:46:33.678Z,408.00
2019-05-20T01:47:33.698Z,420.00
2019-05-20T01:48:33.719Z,416.00
2019-05-20T01:49:33.744Z,396.00
2019-05-20T01:50:33.766Z,372.00
2019-05-20T01:51:33.789Z,364.00
2019-05-20T01:52:33.812Z,368.00
2019-05-20T01:53:33.829Z,360.00
2019-05-20T01:54:33.853Z,368.00
2019-05-20T01:55:33.874Z,364.00
2019-05-20T01:56:33.898Z,312.00
2019-05-20T01:57:33.923Z,276.00
2019-05-20T01:58:33.943Z,260.00
2019-05-20T01:59:33.961Z,256.00
2019-05-20T02:00:33.983Z,276.00
2019-05-20T02:01:34.038Z,312.00
2019-05-20T02:02:34.027Z,344.00
2019-05-20T02:03:34.050Z,384.00
2019-05-20T02:04:34.069Z,416.00
2019-05-20T02:05:34.092Z,436.00
2019-05-20T02:06:34.561Z,452.00
2019-05-20T02:07:34.139Z,460.00
2019-05-20T02:08:34.206Z,532.00
2019-05-20T02:09:34.181Z,532.00
2019-05-20T02:10:34.203Z,536.00
2019-05-20T02:11:34.225Z,552.00
2019-05-20T02:12:34.248Z,572.00
2019-05-20T02:13:34.266Z,628.00
2019-05-20T02:14:34.292Z,684.00
2019-05-20T02:15:34.316Z,696.00
2019-05-20T02:16:34.334Z,716.00
2019-05-20T02:17:34.354Z,720.00
2019-05-20T02:18:34.386Z,724.00
2019-05-20T02:19:34.401Z,720.00
2019-05-20T02:20:34.421Z,732.00
2019-05-20T02:21:34.442Z,752.00
2019-05-20T02:22:34.468Z,752.00
2019-05-20T02:23:34.487Z,728.00
2019-05-20T02:24:34.513Z,716.00
2019-05-20T02:25:34.529Z,724.00
2019-05-20T02:26:34.568Z,676.00
2019-05-20T02:27:34.610Z,636.00
2019-05-20T02:28:34.595Z,612.00
2019-05-20T02:29:34.618Z,624.00
2019-05-20T02:30:34.641Z,616.00
2019-05-20T02:31:34.669Z,612.00
2019-05-20T02:32:34.693Z,608.00
2019-05-20T02:33:50.052Z,624.00
2019-05-20T02:34:34.729Z,628.00
2019-05-20T02:35:35.020Z,640.00
2019-05-20T02:36:34.777Z,624.00
2019-05-20T02:37:34.792Z,640.00
2019-05-20T02:38:34.817Z,584.00
2019-05-20T02:39:34.838Z,576.00
2019-05-20T02:40:34.860Z,552.00
2019-05-20T02:41:34.881Z,568.00
2019-05-20T02:42:34.903Z,592.00
2019-05-20T02:43:34.929Z,636.00
2019-05-20T02:44:34.944Z,644.00
2019-05-20T02:45:35.012Z,696.00
2019-05-20T02:46:34.994Z,680.00
2019-05-20T02:47:35.014Z,676.00
2019-05-20T02:48:35.032Z,700.00
2019-05-20T02:49:35.056Z,744.00
2019-05-20T02:50:35.085Z,772.00
2019-05-20T02:51:35.101Z,804.00
2019-05-20T02:52:35.124Z,820.00
2019-05-20T02:53:35.146Z,836.00
2019-05-20T02:54:35.184Z,856.00
2019-05-20T02:55:35.196Z,876.00
2019-05-20T02:56:35.210Z,884.00
2019-05-20T02:57:35.232Z,896.00
2019-05-20T02:58:35.256Z,940.00
2019-05-20T02:59:35.281Z,968.00
2019-05-20T03:00:35.319Z,988.00
2019-05-20T03:01:35.324Z,1032.00
2019-05-20T03:02:35.342Z,1020.00
2019-05-20T03:03:35.370Z,1004.00
2019-05-20T03:04:35.384Z,1004.00
2019-05-20T03:05:35.410Z,1020.00
2019-05-20T03:06:35.430Z,996.00
2019-05-20T03:07:35.459Z,964.00
2019-05-20T03:08:35.471Z,908.00
2019-05-20T03:09:35.495Z,892.00
2019-05-20T03:10:35.518Z,928.00
2019-05-20T03:11:35.585Z,992.00
2019-05-20T03:12:35.565Z,1020.00
2019-05-20T03:13:35.585Z,1028.00
2019-05-20T03:14:35.604Z,1060.00
2019-05-20T03:15:35.625Z,1036.00
2019-05-20T03:16:35.663Z,1040.00
2019-05-20T03:17:35.671Z,1052.00
2019-05-20T03:18:35.705Z,1116.00
2019-05-20T03:19:35.716Z,1064.00
2019-05-20T03:20:35.737Z,1028.00
2019-05-20T03:21:35.762Z,1052.00
2019-05-20T03:22:35.780Z,1056.00
2019-05-20T03:23:35.809Z,980.00
2019-05-20T03:24:35.826Z,916.00
2019-05-20T03:25:35.859Z,928.00
2019-05-20T03:26:35.871Z,920.00
2019-05-20T03:27:35.892Z,916.00
2019-05-20T03:28:35.923Z,972.00
2019-05-20T03:29:35.935Z,1048.00
2019-05-20T03:30:35.972Z,1028.00
2019-05-20T03:31:36.016Z,1036.00
2019-05-20T03:32:36.008Z,1040.00
2019-05-20T03:33:36.062Z,1068.00
2019-05-20T03:34:46.711Z,1064.00
2019-05-20T03:35:36.072Z,1048.00
2019-05-20T03:36:36.104Z,1032.00
2019-05-20T03:37:36.125Z,1072.00
2019-05-20T03:38:36.136Z,1104.00
2019-05-20T03:39:36.159Z,1104.00
2019-05-20T03:40:36.182Z,1052.00
2019-05-20T03:41:36.205Z,1068.00
2019-05-20T03:42:36.258Z,1128.00
2019-05-20T03:43:36.251Z,1084.00
2019-05-20T03:44:36.281Z,1016.00
2019-05-20T03:45:36.290Z,964.00
2019-05-20T03:46:36.318Z,956.00
2019-05-20T03:47:36.337Z,1012.00
2019-05-20T03:48:36.359Z,908.00
2019-05-20T03:49:36.385Z,796.00
2019-05-20T03:50:36.405Z,740.00
2019-05-20T03:51:36.430Z,772.00
2019-05-20T03:52:36.463Z,876.00
2019-05-20T03:53:36.479Z,932.00
2019-05-20T03:54:36.495Z,932.00
2019-05-20T03:55:36.518Z,868.00
2019-05-20T03:56:36.539Z,932.00
2019-05-20T03:57:36.572Z,988.00
2019-05-20T03:58:36.583Z,1040.00
2019-05-20T03:59:36.604Z,1080.00
2019-05-20T04:00:36.627Z,928.00
2019-05-20T04:01:36.651Z,884.00
2019-05-20T04:02:36.678Z,892.00
2019-05-20T04:03:36.694Z,940.00
2019-05-20T04:04:36.725Z,944.00
2019-05-20T04:05:36.745Z,928.00
2019-05-20T04:06:36.776Z,924.00
2019-05-20T04:07:36.791Z,900.00
2019-05-20T04:08:36.809Z,872.00
2019-05-20T04:09:36.834Z,856.00
2019-05-20T04:10:36.856Z,840.00
2019-05-20T04:11:36.890Z,844.00
2019-05-20T04:12:36.899Z,816.00
2019-05-20T04:13:36.925Z,772.00
2019-05-20T04:14:36.943Z,776.00
2019-05-20T04:15:36.963Z,848.00
2019-05-20T04:16:36.989Z,860.00
2019-05-20T04:17:37.008Z,868.00
2019-05-20T04:18:37.032Z,928.00
2019-05-20T04:19:37.058Z,972.00
2019-05-20T04:20:37.077Z,1056.00
2019-05-20T04:21:37.106Z,1132.00
2019-05-20T04:22:37.121Z,1152.00
2019-05-20T04:23:37.225Z,1028.00
2019-05-20T04:24:37.170Z,1056.00
2019-05-20T04:25:37.196Z,1140.00
2019-05-20T04:26:37.210Z,1240.00
2019-05-20T04:27:37.234Z,1436.00
2019-05-20T04:28:37.259Z,1248.00
2019-05-20T04:29:37.279Z,1308.00
2019-05-20T04:30:37.300Z,1328.00
2019-05-20T04:31:37.347Z,1324.00
2019-05-20T04:32:37.349Z,1196.00
2019-05-20T04:33:37.377Z,1220.00
2019-05-20T04:34:37.391Z,1236.00
2019-05-20T04:35:37.415Z,1152.00
2019-05-20T04:36:37.438Z,1240.00
2019-05-20T04:37:37.458Z,1392.00
2019-05-20T04:38:37.481Z,1276.00
2019-05-20T04:39:37.513Z,1128.00
2019-05-20T04:40:37.539Z,1248.00
2019-05-20T04:41:37.557Z,1360.00
2019-05-20T04:42:37.572Z,1348.00
2019-05-20T04:43:37.594Z,1308.00
2019-05-20T04:44:37.618Z,1284.00
2019-05-20T04:45:37.648Z,1256.00
2019-05-20T04:46:37.665Z,1152.00
2019-05-20T04:47:37.687Z,984.00
2019-05-20T04:48:37.713Z,936.00
2019-05-20T04:49:37.732Z,928.00
2019-05-20T04:50:37.763Z,948.00
2019-05-20T04:51:37.786Z,1076.00
2019-05-20T04:52:37.802Z,1116.00
2019-05-20T04:53:37.825Z,1108.00
2019-05-20T04:54:37.847Z,1120.00
2019-05-20T04:55:37.869Z,1080.00
2019-05-20T04:56:37.891Z,1000.00
2019-05-20T04:57:37.916Z,964.00
2019-05-20T04:58:37.939Z,980.00
2019-05-20T04:59:37.962Z,1004.00
2019-05-20T05:00:38.000Z,916.00
2019-05-20T05:01:38.011Z,944.00
2019-05-20T05:02:38.030Z,1052.00
2019-05-20T05:03:38.053Z,984.00
2019-05-20T05:04:38.075Z,1000.00
2019-05-20T05:05:38.175Z,944.00
2019-05-20T05:06:38.121Z,908.00
2019-05-20T05:07:38.149Z,860.00
2019-05-20T05:08:38.172Z,880.00
2019-05-20T05:09:38.191Z,908.00
2019-05-20T05:10:38.219Z,976.00
2019-05-20T05:11:38.240Z,996.00
2019-05-20T05:12:38.258Z,1040.00
2019-05-20T05:13:38.282Z,1084.00
2019-05-20T05:14:38.307Z,1124.00
2019-05-20T05:15:38.331Z,1120.00
2019-05-20T05:16:38.352Z,1216.00
2019-05-20T05:17:38.374Z,1164.00
2019-05-20T05:18:38.398Z,1192.00
2019-05-20T05:19:38.421Z,1244.00
2019-05-20T05:20:38.442Z,1280.00
2019-05-20T05:21:38.466Z,1280.00
2019-05-20T05:22:38.487Z,1280.00
2019-05-20T05:23:38.512Z,1264.00
2019-05-20T05:24:38.538Z,1344.00
2019-05-20T05:25:38.560Z,1248.00
2019-05-20T05:26:38.616Z,1388.00
2019-05-20T05:27:38.612Z,1320.00
2019-05-20T05:28:38.626Z,1324.00
2019-05-20T05:29:38.655Z,1320.00
2019-05-20T05:30:38.683Z,1340.00
2019-05-20T05:31:38.696Z,1332.00
2019-05-20T05:32:38.718Z,1264.00
2019-05-20T05:33:38.746Z,1168.00
2019-05-20T05:34:38.773Z,1232.00
2019-05-20T05:35:52.380Z,1244.00
2019-05-20T05:36:38.811Z,1356.00
2019-05-20T05:37:38.859Z,1160.00
2019-05-20T05:38:38.856Z,1208.00
2019-05-20T05:39:38.884Z,1328.00
2019-05-20T05:40:38.903Z,1284.00
2019-05-20T05:41:38.926Z,1320.00
2019-05-20T05:42:38.953Z,1240.00
2019-05-20T05:43:38.974Z,1156.00
2019-05-20T05:44:39.015Z,1192.00
2019-05-20T05:45:39.327Z,1308.00
2019-05-20T05:46:39.044Z,1420.00
2019-05-20T05:47:39.065Z,1472.00
2019-05-20T05:48:39.088Z,1460.00
2019-05-20T05:49:39.114Z,1480.00
2019-05-20T05:50:39.153Z,1328.00
2019-05-20T05:51:39.157Z,1284.00
2019-05-20T05:52:39.187Z,1372.00
2019-05-20T05:53:39.208Z,1304.00
2019-05-20T05:54:39.229Z,1340.00
2019-05-20T05:55:39.260Z,1348.00
2019-05-20T05:56:39.272Z,1468.00
2019-05-20T05:57:39.300Z,1396.00
2019-05-20T05:58:39.319Z,1340.00
2019-05-20T05:59:39.345Z,1416.00
2019-05-20T06:00:39.478Z,1164.00
2019-05-20T06:01:39.390Z,1096.00
2019-05-20T06:02:39.413Z,1128.00
2019-05-20T06:03:39.437Z,1140.00
2019-05-20T06:04:39.462Z,1192.00
2019-05-20T06:05:39.482Z,1212.00
2019-05-20T06:06:39.507Z,1264.00
2019-05-20T06:07:39.536Z,1212.00
2019-05-20T06:08:39.567Z,1208.00
2019-05-20T06:09:39.580Z,1312.00
2019-05-20T06:10:39.599Z,1192.00
2019-05-20T06:11:39.624Z,1292.00
2019-05-20T06:12:39.643Z,1328.00
2019-05-20T06:13:39.668Z,1228.00
2019-05-20T06:14:39.692Z,1236.00
2019-05-20T06:15:39.719Z,1276.00
2019-05-20T06:16:39.738Z,1300.00
2019-05-20T06:17:39.763Z,1220.00
2019-05-20T06:18:39.819Z,1184.00
2019-05-20T06:19:39.809Z,1208.00
2019-05-20T06:20:39.836Z,1224.00
2019-05-20T06:21:39.858Z,1212.00
2019-05-20T06:22:39.895Z,1160.00
2019-05-20T06:23:39.903Z,1092.00
2019-05-20T06:24:39.924Z,1140.00
2019-05-20T06:25:39.949Z,1168.00
2019-05-20T06:26:39.970Z,1184.00
2019-05-20T06:27:39.999Z,1228.00
2019-05-20T06:28:40.040Z,1144.00
2019-05-20T06:29:40.044Z,1164.00
2019-05-20T06:30:40.066Z,1116.00
2019-05-20T06:31:40.090Z,1224.00
2019-05-20T06:32:40.116Z,1196.00
2019-05-20T06:33:40.142Z,1220.00
2019-05-20T06:34:42.537Z,1252.00
2019-05-20T06:35:40.183Z,1240.00
2019-05-20T06:36:40.206Z,1160.00
2019-05-20T06:37:40.231Z,1176.00
2019-05-20T06:38:40.250Z,1192.00
2019-05-20T06:39:40.278Z,1188.00
2019-05-20T06:40:40.308Z,1160.00
2019-05-20T06:41:40.327Z,1128.00
2019-05-20T06:42:40.347Z,1120.00
2019-05-20T06:43:40.379Z,1136.00
2019-05-20T06:44:52.100Z,1140.00
2019-05-20T06:45:40.419Z,1128.00
2019-05-20T06:46:40.441Z,1176.00
2019-05-20T06:47:40.463Z,1172.00
2019-05-20T06:48:40.485Z,1228.00
2019-05-20T06:49:40.508Z,1204.00
2019-05-20T06:50:40.539Z,1220.00
2019-05-20T06:51:40.559Z,1256.00
2019-05-20T06:52:40.579Z,1320.00
2019-05-20T06:53:40.602Z,1300.00
2019-05-20T06:54:40.653Z,1340.00
2019-05-20T06:55:40.655Z,1332.00
2019-05-20T06:56:40.829Z,1312.00
2019-05-20T06:57:40.697Z,1308.00
2019-05-20T06:58:40.722Z,1320.00
2019-05-20T06:59:40.746Z,1300.00
2019-05-20T07:00:40.768Z,1356.00
2019-05-20T07:01:40.792Z,1304.00
2019-05-20T07:02:40.821Z,1316.00
2019-05-20T07:03:40.838Z,1232.00
2019-05-20T07:04:40.861Z,1180.00
2019-05-20T07:05:40.884Z,1140.00
2019-05-20T07:06:46.888Z,1120.00
2019-05-20T07:07:40.937Z,1192.00
2019-05-20T07:08:40.953Z,1168.00
2019-05-20T07:09:40.982Z,1164.00
2019-05-20T07:10:41.002Z,1084.00
2019-05-20T07:11:51.930Z,1032.00
2019-05-20T07:12:41.935Z,968.00
2019-05-20T07:13:41.074Z,964.00
2019-05-20T07:14:41.097Z,992.00
2019-05-20T07:15:41.123Z,1064.00
2019-05-20T07:16:41.144Z,1160.00
2019-05-20T07:17:41.175Z,1188.00
2019-05-20T07:18:41.191Z,1252.00
2019-05-20T07:19:41.217Z,1308.00
2019-05-20T07:20:41.240Z,1332.00
2019-05-20T07:21:41.267Z,1288.00
2019-05-20T07:22:55.368Z,1276.00
2019-05-20T07:23:41.315Z,1280.00
2019-05-20T07:24:41.335Z,1396.00
2019-05-20T07:25:41.372Z,1540.00
2019-05-20T07:26:41.382Z,1440.00
2019-05-20T07:27:41.411Z,1284.00
2019-05-20T07:28:41.427Z,1304.00
2019-05-20T07:29:41.461Z,1340.00
2019-05-20T07:30:41.483Z,1360.00
2019-05-20T07:31:41.524Z,1696.00
2019-05-20T07:32:41.519Z,1640.00
2019-05-20T07:33:41.544Z,1400.00
2019-05-20T07:34:41.574Z,1316.00
2019-05-20T07:35:41.600Z,1332.00
2019-05-20T07:36:41.616Z,1296.00
2019-05-20T07:37:41.664Z,1328.00
2019-05-20T07:38:41.743Z,1288.00
2019-05-20T07:39:41.700Z,1336.00
2019-05-20T07:40:41.710Z,1292.00
2019-05-20T07:41:42.046Z,1340.00
2019-05-20T07:42:41.757Z,1324.00
2019-05-20T07:43:41.781Z,1440.00
2019-05-20T07:44:41.802Z,1384.00
2019-05-20T07:45:41.827Z,1288.00
2019-05-20T07:46:41.855Z,1260.00
2019-05-20T07:47:41.879Z,1248.00
2019-05-20T07:48:41.929Z,1244.00
2019-05-20T07:49:41.923Z,1176.00
2019-05-20T07:50:41.950Z,1180.00
2019-05-20T07:51:41.970Z,1160.00
2019-05-20T07:52:41.996Z,1208.00
2019-05-20T07:53:42.021Z,1204.00
2019-05-20T07:54:42.048Z,1172.00
2019-05-20T07:55:42.068Z,1192.00
2019-05-20T07:56:42.089Z,1200.00
2019-05-20T07:57:42.114Z,1308.00
2019-05-20T07:58:42.154Z,1204.00
2019-05-20T07:59:42.163Z,1184.00
2019-05-20T08:00:42.187Z,1044.00
2019-05-20T08:01:42.209Z,904.00
2019-05-20T08:02:42.232Z,792.00
2019-05-20T08:03:42.256Z,720.00
2019-05-20T08:04:42.289Z,712.00
2019-05-20T08:05:42.303Z,704.00
2019-05-20T08:06:42.332Z,712.00
2019-05-20T08:07:51.919Z,728.00
2019-05-20T08:08:42.378Z,748.00
2019-05-20T08:09:45.995Z,736.00
2019-05-20T08:10:42.463Z,708.00
2019-05-20T08:11:42.446Z,708.00
2019-05-20T08:12:42.470Z,728.00
2019-05-20T08:13:42.496Z,768.00
2019-05-20T08:14:42.519Z,872.00
2019-05-20T08:15:42.542Z,932.00
2019-05-20T08:16:42.567Z,1000.00
2019-05-20T08:17:42.589Z,1072.00
2019-05-20T08:18:42.618Z,1108.00
2019-05-20T08:19:42.636Z,1136.00
2019-05-20T08:20:42.665Z,1136.00
2019-05-20T08:21:42.683Z,1128.00
2019-05-20T08:22:42.715Z,1100.00
2019-05-20T08:23:42.737Z,1112.00
2019-05-20T08:24:42.756Z,1064.00
2019-05-20T08:25:42.778Z,1072.00
2019-05-20T08:26:42.824Z,872.00
2019-05-20T08:27:42.825Z,724.00
2019-05-20T08:28:42.852Z,648.00
2019-05-20T08:29:42.876Z,624.00
2019-05-20T08:30:42.904Z,628.00
2019-05-20T08:31:42.923Z,648.00
2019-05-20T08:32:42.959Z,664.00
2019-05-20T08:33:42.985Z,588.00
2019-05-20T08:34:43.007Z,576.00
2019-05-20T08:35:43.059Z,608.00
2019-05-20T08:36:43.054Z,612.00
2019-05-20T08:37:45.870Z,620.00
2019-05-20T08:38:43.097Z,624.00
2019-05-20T08:39:43.126Z,644.00
2019-05-20T08:40:43.143Z,608.00
2019-05-20T08:41:43.172Z,576.00
2019-05-20T08:42:43.191Z,548.00
2019-05-20T08:43:43.258Z,552.00
2019-05-20T08:44:43.243Z,604.00
2019-05-20T08:45:43.258Z,608.00
2019-05-20T08:46:43.287Z,644.00
2019-05-20T08:47:43.318Z,628.00
2019-05-20T08:48:43.331Z,648.00
2019-05-20T08:49:43.929Z,684.00
2019-05-20T08:50:43.381Z,728.00
2019-05-20T08:51:43.406Z,760.00
2019-05-20T08:52:43.427Z,828.00
2019-05-20T08:53:43.449Z,852.00
2019-05-20T08:54:43.475Z,772.00
2019-05-20T08:55:43.501Z,744.00
2019-05-20T08:56:43.522Z,692.00
2019-05-20T08:57:43.581Z,656.00
2019-05-20T08:58:43.568Z,624.00
2019-05-20T08:59:43.591Z,628.00
2019-05-20T09:00:43.630Z,620.00
2019-05-20T09:01:43.639Z,612.00
2019-05-20T09:02:43.665Z,604.00
2019-05-20T09:03:43.687Z,600.00
2019-05-20T09:04:43.708Z,616.00
2019-05-20T09:05:43.734Z,628.00
2019-05-20T09:06:43.765Z,624.00
2019-05-20T09:07:43.788Z,640.00
2019-05-20T09:08:43.861Z,632.00
2019-05-20T09:09:43.837Z,636.00
2019-05-20T09:10:43.851Z,636.00
2019-05-20T09:11:47.526Z,672.00
2019-05-20T09:12:44.088Z,676.00
2019-05-20T09:13:43.941Z,716.00
2019-05-20T09:14:43.959Z,756.00
2019-05-20T09:15:45.491Z,812.00
2019-05-20T09:16:43.993Z,732.00
2019-05-20T09:17:44.022Z,640.00
2019-05-20T09:18:44.044Z,580.00
2019-05-20T09:19:46.927Z,516.00
2019-05-20T09:20:44.162Z,464.00
2019-05-20T09:21:44.122Z,404.00
2019-05-20T09:22:44.146Z,388.00
2019-05-20T09:23:44.253Z,420.00
2019-05-20T09:24:44.247Z,424.00
2019-05-20T09:25:44.228Z,432.00
2019-05-20T09:26:44.244Z,436.00
2019-05-20T09:27:44.259Z,436.00
2019-05-20T09:28:44.279Z,452.00
2019-05-20T09:29:44.302Z,444.00
2019-05-20T09:30:44.322Z,452.00
2019-05-20T09:31:44.361Z,448.00
2019-05-20T09:32:44.379Z,492.00
2019-05-20T09:33:44.404Z,512.00
2019-05-20T09:34:44.417Z,464.00
2019-05-20T09:35:44.502Z,464.00
2019-05-20T09:36:44.471Z,464.00
2019-05-20T09:37:44.490Z,480.00
2019-05-20T09:38:44.530Z,500.00
2019-05-20T09:39:44.536Z,512.00
2019-05-20T09:40:44.561Z,544.00
2019-05-20T09:41:44.585Z,552.00
2019-05-20T09:42:44.612Z,464.00
2019-05-20T09:43:44.638Z,460.00
2019-05-20T09:44:44.736Z,428.00
2019-05-20T09:45:44.687Z,396.00
2019-05-20T09:46:44.703Z,268.00
2019-05-20T09:47:44.724Z,304.00
2019-05-20T09:48:44.749Z,296.00
2019-05-20T09:49:44.773Z,296.00
2019-05-20T09:50:44.806Z,284.00
2019-05-20T09:51:44.825Z,272.00
2019-05-20T09:52:44.844Z,288.00
2019-05-20T09:53:44.864Z,260.00
2019-05-20T09:54:45.605Z,252.00
2019-05-20T09:55:44.912Z,264.00
2019-05-20T09:56:44.933Z,244.00
2019-05-20T09:57:44.958Z,260.00
2019-05-20T09:58:45.000Z,264.00
2019-05-20T09:59:45.035Z,268.00
2019-05-20T10:00:45.050Z,320.00
2019-05-20T10:01:45.048Z,288.00
2019-05-20T10:02:45.102Z,300.00
2019-05-20T10:03:45.131Z,324.00
2019-05-20T10:04:45.135Z,304.00
2019-05-20T10:05:45.142Z,304.00
2019-05-20T10:06:45.174Z,308.00
2019-05-20T10:07:45.194Z,300.00
2019-05-20T10:08:45.485Z,276.00
2019-05-20T10:09:45.242Z,236.00
2019-05-20T10:10:45.256Z,228.00
2019-05-20T10:11:45.282Z,228.00
2019-05-20T10:12:47.083Z,204.00
2019-05-20T10:13:45.327Z,200.00
2019-05-20T10:14:45.350Z,196.00
2019-05-20T10:15:45.383Z,200.00
2019-05-20T10:16:45.397Z,204.00
2019-05-20T10:17:45.417Z,208.00
2019-05-20T10:18:45.447Z,200.00
2019-05-20T10:19:45.498Z,208.00
2019-05-20T10:20:45.498Z,204.00
2019-05-20T10:21:45.509Z,216.00
2019-05-20T10:22:45.532Z,244.00
2019-05-20T10:23:45.554Z,220.00
2019-05-20T10:24:45.678Z,224.00
2019-05-20T10:25:45.600Z,232.00
2019-05-20T10:26:45.622Z,256.00
2019-05-20T10:27:45.658Z,240.00
2019-05-20T10:28:47.388Z,240.00
2019-05-20T10:29:45.698Z,240.00
2019-05-20T10:30:45.720Z,232.00
2019-05-20T10:31:45.737Z,228.00
2019-05-20T10:32:45.758Z,228.00
2019-05-20T10:33:45.784Z,216.00
2019-05-20T10:34:45.808Z,200.00
2019-05-20T10:35:45.828Z,200.00
2019-05-20T10:36:45.848Z,188.00
2019-05-20T10:37:45.874Z,240.00
2019-05-20T10:38:57.782Z,192.00
2019-05-20T10:39:45.917Z,176.00
2019-05-20T10:40:45.942Z,164.00
2019-05-20T10:41:45.964Z,156.00
2019-05-20T10:42:45.995Z,148.00
2019-05-20T10:43:46.007Z,136.00
2019-05-20T10:44:46.030Z,132.00
2019-05-20T10:45:46.051Z,116.00
2019-05-20T10:46:46.074Z,124.00
2019-05-20T10:47:46.097Z,112.00
2019-05-20T10:48:46.118Z,120.00
2019-05-20T10:49:46.143Z,116.00
2019-05-20T10:50:46.183Z,104.00
2019-05-20T10:51:46.186Z,100.00
2019-05-20T10:52:46.209Z,116.00
2019-05-20T10:53:46.326Z,96.00
2019-05-20T10:54:46.260Z,112.00
2019-05-20T10:55:46.276Z,92.00
2019-05-20T10:56:46.300Z,92.00
2019-05-20T10:57:46.330Z,84.00
2019-05-20T10:58:46.344Z,84.00
2019-05-20T10:59:46.369Z,76.00
2019-05-20T11:01:01.790Z,72.00
2019-05-20T11:01:46.409Z,68.00
2019-05-20T11:02:46.445Z,60.00
2019-05-20T11:03:46.457Z,56.00
2019-05-20T11:04:46.522Z,52.00
2019-05-20T11:05:46.497Z,48.00
2019-05-20T11:06:46.559Z,44.00
2019-05-20T11:07:46.561Z,48.00
2019-05-20T11:08:46.567Z,36.00
2019-05-20T11:09:46.588Z,36.00
2019-05-20T11:10:46.619Z,36.00
2019-05-20T11:11:46.631Z,28.00
2019-05-20T11:12:46.653Z,24.00
2019-05-20T11:13:46.679Z,20.00
2019-05-20T11:14:46.730Z,20.00
2019-05-20T11:15:46.721Z,20.00
2019-05-20T11:16:46.740Z,20.00
2019-05-20T11:17:46.765Z,16.00
2019-05-20T11:18:46.787Z,16.00
2019-05-20T11:19:46.816Z,12.00
2019-05-20T11:20:46.863Z,12.00
2019-05-20T11:21:46.886Z,12.00
2019-05-20T11:22:46.913Z,12.00
2019-05-20T11:23:46.915Z,12.00
2019-05-20T11:24:47.164Z,8.00
2019-05-20T11:25:46.957Z,8.00
2019-05-20T11:26:47.038Z,8.00
2019-05-20T11:27:46.984Z,4.00
2019-05-20T11:28:47.005Z,4.00
2019-05-20T11:29:47.050Z,4.00
2019-05-20T11:30:47.057Z,4.00
2019-05-20T11:31:47.074Z,4.00
2019-05-20T11:32:47.750Z,4.00
2019-05-20T11:33:47.117Z,4.00
2019-05-20T11:34:47.298Z,4.00
2019-05-20T11:35:47.161Z,4.00
2019-05-20T11:36:47.185Z,4.00
2019-05-20T11:37:47.218Z,0.00
2019-05-20T11:38:47.226Z,0.00
2019-05-20T11:39:47.251Z,4.00
2019-05-20T11:40:47.275Z,4.00
2019-05-20T11:41:53.436Z,0.00
2019-05-20T11:42:47.316Z,4.00
2019-05-20T11:43:47.337Z,0.00
2019-05-20T11:44:47.436Z,0.00
2019-05-20T11:45:47.384Z,0.00
2019-05-20T11:46:47.405Z,0.00
2019-05-20T11:47:47.423Z,0.00
2019-05-20T11:48:47.446Z,0.00
2019-05-20T11:49:47.474Z,0.00
2019-05-20T11:50:47.489Z,0.00
2019-05-20T11:51:47.513Z,0.00
2019-05-20T11:52:47.536Z,0.00
2019-05-20T11:53:47.553Z,0.00
2019-05-20T11:54:47.718Z,0.00
2019-05-20T11:55:47.609Z,0.00
2019-05-20T11:56:47.620Z,0.00
2019-05-20T11:57:47.649Z,0.00
2019-05-20T11:58:47.662Z,0.00
2019-05-20T11:59:47.700Z,0.00
2019-05-20T12:00:47.707Z,0.00
2019-05-20T12:01:48.003Z,0.00
2019-05-20T12:02:47.750Z,0.00
2019-05-20T12:03:47.957Z,0.00
2019-05-20T12:04:47.814Z,0.00
2019-05-20T12:05:47.841Z,0.00
2019-05-20T12:06:47.835Z,0.00
2019-05-20T12:07:47.902Z,0.00
2019-05-20T12:08:47.884Z,0.00
2019-05-20T12:09:50.022Z,0.00
2019-05-20T12:10:47.925Z,0.00
2019-05-20T12:11:47.955Z,0.00
2019-05-20T12:12:47.967Z,0.00
2019-05-20T12:13:48.008Z,0.00
2019-05-20T12:14:48.106Z,0.00
2019-05-20T12:15:48.032Z,0.00
2019-05-20T12:16:48.052Z,0.00
2019-05-20T12:17:48.074Z,0.00
2019-05-20T12:18:48.097Z,0.00
2019-05-20T12:19:48.115Z,0.00
2019-05-20T12:20:48.136Z,0.00
2019-05-20T12:21:48.163Z,0.00
2019-05-20T12:22:48.183Z,0.00
2019-05-20T12:23:48.217Z,0.00
2019-05-20T12:24:48.225Z,0.00
2019-05-20T12:25:48.249Z,0.00